Time;durP1;ratioP1;P1;durP2;ratioP2;P2;SDS_P1;SDS_P2;PMS_P1;PMS_P2;Temp;Humidity;BMP_temperature;BMP_pressure;BME280_temperature;BME280_humidity;BME280_pressure;Samples;Min_cycle;Max_cycle;Signal;HPM_P1;HPM_P2
2022/06/27 00:01:38;;;;;;;;;;;17.80;99.90;;;;;;5011001;28;19917;-68
2022/06/27 00:04:04;;;;;;;;;;;17.70;99.90;;;;;;5014892;28;19917;-68
2022/06/27 00:06:30;;;;;;;;;;;17.70;99.90;;;;;;5028957;28;20243;-68
2022/06/27 00:08:56;;;;;;;;;;;17.70;99.90;;;;;;5028351;28;20214;-68
2022/06/27 00:11:22;;;;;;;;;;;17.70;99.90;;;;;;5028591;28;20432;-68
2022/06/27 00:13:47;;;;;;;;;;;17.70;99.90;;;;;;5004213;28;20381;-69
2022/06/27 00:16:13;;;;;;;;;;;17.70;99.90;;;;;;5026782;28;19923;-68
2022/06/27 00:18:38;;;;;;;;;;;17.80;99.90;;;;;;5029599;28;19916;-68
2022/06/27 00:21:04;;;;;;;;;;;17.70;99.90;;;;;;5023700;28;20275;-68
2022/06/27 00:23:30;;;;;;;;;;;17.70;99.90;;;;;;5018499;28;19920;-68
2022/06/27 00:25:55;;;;;;;;;;;17.70;99.90;;;;;;5020353;28;19917;-68
2022/06/27 00:28:21;;;;;;;;;;;17.70;99.90;;;;;;5029130;28;19928;-68
2022/06/27 00:30:46;;;;;;;;;;;17.70;99.90;;;;;;5023121;28;20238;-68
2022/06/27 00:33:12;;;;;;;;;;;17.70;99.90;;;;;;5027746;28;20015;-68
2022/06/27 00:35:38;;;;;;;;;;;17.70;99.90;;;;;;5028224;28;19921;-68
2022/06/27 00:38:03;;;;;;;;;;;17.70;99.90;;;;;;5018523;28;19917;-68
2022/06/27 00:40:29;;;;;;;;;;;17.70;99.90;;;;;;5025575;28;20015;-68
2022/06/27 00:42:55;;;;;;;;;;;17.70;99.90;;;;;;5028185;28;20282;-69
2022/06/27 00:45:20;;;;;;;;;;;17.70;99.90;;;;;;5025445;28;19917;-68
2022/06/27 00:47:46;;;;;;;;;;;17.70;99.90;;;;;;5008220;28;19993;-69
2022/06/27 00:50:12;;;;;;;;;;;17.70;99.90;;;;;;4991131;28;19917;-68
2022/06/27 00:52:37;;;;;;;;;;;17.60;99.90;;;;;;5009528;28;19969;-68
2022/06/27 00:55:04;;;;;;;;;;;17.70;99.90;;;;;;5013771;28;20293;-68
2022/06/27 00:57:30;;;;;;;;;;;17.60;99.90;;;;;;5028766;28;19917;-68
2022/06/27 00:59:55;;;;;;;;;;;17.60;99.90;;;;;;5027237;28;19923;-68
2022/06/27 01:02:21;;;;;;;;;;;17.70;99.90;;;;;;5028439;28;20404;-68
2022/06/27 01:04:46;;;;;;;;;;;17.70;99.90;;;;;;5009894;28;19917;-68
2022/06/27 01:07:12;;;;;;;;;;;17.70;99.90;;;;;;5008122;28;19928;-69
2022/06/27 01:09:38;;;;;;;;;;;17.70;99.90;;;;;;5019077;28;19921;-69
2022/06/27 01:12:04;;;;;;;;;;;17.70;99.90;;;;;;5015615;28;20005;-68
2022/06/27 01:14:30;;;;;;;;;;;17.70;99.90;;;;;;5008593;28;19965;-68
2022/06/27 01:16:56;;;;;;;;;;;17.70;99.90;;;;;;5008070;28;19922;-68
2022/06/27 01:19:22;;;;;;;;;;;17.70;99.90;;;;;;5014343;28;20431;-68
2022/06/27 01:21:49;;;;;;;;;;;17.70;99.90;;;;;;5009992;28;19992;-68
2022/06/27 01:24:15;;;;;;;;;;;17.60;99.90;;;;;;5008323;28;20279;-68
2022/06/27 01:26:41;;;;;;;;;;;17.70;99.90;;;;;;5009548;28;19922;-67
2022/06/27 01:29:07;;;;;;;;;;;17.70;99.90;;;;;;5020542;28;19917;-68
2022/06/27 01:31:34;;;;;;;;;;;17.70;99.90;;;;;;5011468;28;19940;-68
2022/06/27 01:33:59;;;;;;;;;;;17.60;99.90;;;;;;5012928;28;19928;-68
2022/06/27 01:36:43;;;;;;;;;;;17.70;99.90;;;;;;5013798;28;19917;-68
2022/06/27 01:39:10;;;;;;;;;;;17.60;99.90;;;;;;5029842;28;19917;-68
2022/06/27 01:41:42;;;;;;;;;;;17.70;99.90;;;;;;5013955;28;20013;-68
2022/06/27 01:44:09;;;;;;;;;;;17.70;99.90;;;;;;5025388;28;20188;-68
2022/06/27 01:46:38;;;;;;;;;;;17.70;99.90;;;;;;5029120;28;19971;-68
2022/06/27 01:49:04;;;;;;;;;;;17.70;99.90;;;;;;5031956;28;20080;-68
2022/06/27 01:51:30;;;;;;;;;;;17.70;99.90;;;;;;5019604;28;20274;-68
2022/06/27 01:53:55;;;;;;;;;;;17.70;99.90;;;;;;5019376;28;19917;-68
2022/06/27 01:56:21;;;;;;;;;;;17.70;99.90;;;;;;5013241;28;20279;-68
2022/06/27 01:58:47;;;;;;;;;;;17.70;99.90;;;;;;5011582;28;19921;-67
2022/06/27 02:01:12;;;;;;;;;;;17.70;99.90;;;;;;5018522;28;20120;-67
2022/06/27 02:03:38;;;;;;;;;;;17.60;99.90;;;;;;5013176;28;20084;-68
2022/06/27 02:06:07;;;;;;;;;;;17.70;99.90;;;;;;5012233;28;19917;-68
2022/06/27 02:08:33;;;;;;;;;;;17.70;99.90;;;;;;5017207;28;19995;-70
2022/06/27 02:10:58;;;;;;;;;;;17.70;99.90;;;;;;5031525;28;20393;-70
2022/06/27 02:13:24;;;;;;;;;;;17.60;99.90;;;;;;5032115;28;19917;-70
2022/06/27 02:16:09;;;;;;;;;;;17.60;99.90;;;;;;5031194;28;19917;-70
2022/06/27 02:18:36;;;;;;;;;;;17.60;99.90;;;;;;5029219;28;20023;-69
2022/06/27 02:21:02;;;;;;;;;;;17.60;99.90;;;;;;5029614;28;19917;-70
2022/06/27 02:23:27;;;;;;;;;;;17.60;99.90;;;;;;5018921;28;20159;-70
2022/06/27 02:25:55;;;;;;;;;;;17.60;99.90;;;;;;5023021;28;19917;-70
2022/06/27 02:28:22;;;;;;;;;;;17.60;99.90;;;;;;5021582;28;19921;-69
2022/06/27 02:30:48;;;;;;;;;;;17.60;99.90;;;;;;5030454;28;20179;-69
2022/06/27 02:33:13;;;;;;;;;;;17.60;99.90;;;;;;5031434;28;19917;-70
2022/06/27 02:35:39;;;;;;;;;;;17.60;99.90;;;;;;5029771;28;19963;-69
2022/06/27 02:38:05;;;;;;;;;;;17.60;99.90;;;;;;5009894;28;19975;-69
2022/06/27 02:40:31;;;;;;;;;;;17.60;99.90;;;;;;5012337;28;20366;-69
2022/06/27 02:42:58;;;;;;;;;;;17.60;99.90;;;;;;5009711;28;19917;-69
2022/06/27 02:45:30;;;;;;;;;;;17.70;99.90;;;;;;5009354;28;20290;-69
2022/06/27 02:47:59;;;;;;;;;;;17.60;99.90;;;;;;5018186;28;19921;-69
2022/06/27 02:50:26;;;;;;;;;;;17.60;99.90;;;;;;5009543;28;20019;-69
2022/06/27 02:52:54;;;;;;;;;;;17.60;99.90;;;;;;5010245;28;19917;-69
2022/06/27 02:55:26;;;;;;;;;;;17.60;99.90;;;;;;5014218;28;20263;-69
2022/06/27 02:57:53;;;;;;;;;;;17.60;99.90;;;;;;5009924;28;20026;-69
2022/06/27 03:00:19;;;;;;;;;;;17.60;99.90;;;;;;5010519;28;19924;-69
2022/06/27 03:02:45;;;;;;;;;;;17.60;99.90;;;;;;5010006;28;19917;-70
2022/06/27 03:05:11;;;;;;;;;;;17.60;99.90;;;;;;5016791;28;19917;-69
2022/06/27 03:07:41;;;;;;;;;;;17.60;99.90;;;;;;5029452;28;20024;-69
2022/06/27 03:10:07;;;;;;;;;;;17.60;99.90;;;;;;5012910;28;20378;-68
2022/06/27 03:12:32;;;;;;;;;;;17.60;99.90;;;;;;5025995;28;20071;-68
2022/06/27 03:14:58;;;;;;;;;;;17.60;99.90;;;;;;5028853;28;20020;-68
2022/06/27 03:17:23;;;;;;;;;;;17.60;99.90;;;;;;5028914;28;19921;-68
2022/06/27 03:19:50;;;;;;;;;;;17.60;99.90;;;;;;5028999;28;20007;-68
2022/06/27 03:22:16;;;;;;;;;;;17.60;99.90;;;;;;5022821;28;19917;-68
2022/06/27 03:24:42;;;;;;;;;;;17.60;99.90;;;;;;4992664;28;19971;-68
2022/06/27 03:27:08;;;;;;;;;;;17.60;99.90;;;;;;5011288;28;20016;-68
2022/06/27 03:29:34;;;;;;;;;;;17.60;99.90;;;;;;5009720;28;19917;-68
2022/06/27 03:31:59;;;;;;;;;;;17.60;99.90;;;;;;5010069;28;20203;-68
2022/06/27 03:34:25;;;;;;;;;;;17.60;99.90;;;;;;4991546;28;19917;-68
2022/06/27 03:36:50;;;;;;;;;;;17.60;99.90;;;;;;5010534;28;19918;-68
2022/06/27 03:39:16;;;;;;;;;;;17.60;99.90;;;;;;5019752;28;19925;-68
2022/06/27 03:41:42;;;;;;;;;;;17.60;99.90;;;;;;5021397;28;19971;-68
2022/06/27 03:44:11;;;;;;;;;;;17.50;99.90;;;;;;5030417;28;19921;-68
2022/06/27 03:46:37;;;;;;;;;;;17.50;99.90;;;;;;5026785;28;20008;-68
2022/06/27 03:51:47;;;;;;;;;;;17.50;99.90;;;;;;5019895;28;19924;-69
2022/06/27 03:54:19;;;;;;;;;;;17.50;99.90;;;;;;5050902;23;19921;-83
2022/06/27 03:56:47;;;;;;;;;;;17.50;99.90;;;;;;5030512;28;19921;-85
2022/06/27 03:59:19;;;;;;;;;;;17.40;99.90;;;;;;5017399;28;19967;-85
2022/06/27 04:01:58;;;;;;;;;;;;;;;;;;;;;
2022/06/27 04:04:26;;;;;;;;;;;17.40;99.90;;;;;;5008183;28;19918;-85
2022/06/27 04:06:54;;;;;;;;;;;17.50;99.90;;;;;;5028446;28;20385;-84
2022/06/27 04:09:20;;;;;;;;;;;17.50;99.90;;;;;;5021517;28;20528;-85
2022/06/27 04:11:48;;;;;;;;;;;17.50;99.90;;;;;;5031682;28;19928;-85
2022/06/27 04:14:21;;;;;;;;;;;17.40;99.90;;;;;;5014596;28;19921;-86
2022/06/27 04:16:52;;;;;;;;;;;17.40;99.90;;;;;;5011461;28;20008;-85
2022/06/27 04:19:20;;;;;;;;;;;17.50;99.90;;;;;;5011966;28;20052;-86
2022/06/27 04:21:49;;;;;;;;;;;17.50;99.90;;;;;;5011568;28;19957;-85
2022/06/27 04:24:17;;;;;;;;;;;17.50;99.90;;;;;;4995325;28;19917;-86
2022/06/27 04:27:02;;;;;;;;;;;17.70;99.90;;;;;;5013131;28;19921;-86
2022/06/27 04:29:30;;;;;;;;;;;17.50;99.90;;;;;;4994818;28;19921;-86
2022/06/27 04:31:56;;;;;;;;;;;17.50;99.90;;;;;;5036391;28;20062;-85
2022/06/27 04:34:22;;;;;;;;;;;17.50;99.90;;;;;;5012742;28;19924;-85
2022/06/27 04:36:47;;;;;;;;;;;17.60;99.90;;;;;;4995032;28;19924;-86
2022/06/27 04:39:19;;;;;;;;;;;17.60;99.90;;;;;;4993516;28;19918;-86
2022/06/27 04:41:55;;;;;;;;;;;17.60;99.90;;;;;;5002077;28;20383;-86
2022/06/27 04:44:21;;;;;;;;;;;17.60;99.90;;;;;;5011394;28;20686;-85
2022/06/27 04:46:54;;;;;;;;;;;17.60;99.90;;;;;;5008384;28;20057;-85
2022/06/27 04:49:29;;;;;;;;;;;17.70;99.90;;;;;;5007603;28;19921;-86
2022/06/27 04:51:56;;;;;;;;;;;17.60;99.90;;;;;;5011913;28;19917;-84
2022/06/27 04:54:22;;;;;;;;;;;17.70;99.90;;;;;;5010805;28;19937;-84
2022/06/27 04:56:52;;;;;;;;;;;17.70;99.90;;;;;;5011188;28;19921;-85
2022/06/27 04:59:20;;;;;;;;;;;17.80;99.90;;;;;;5010504;28;19956;-85
2022/06/27 05:01:53;;;;;;;;;;;17.70;99.90;;;;;;4994798;28;20334;-86
2022/06/27 05:04:22;;;;;;;;;;;17.70;99.90;;;;;;4992621;28;19918;-85
2022/06/27 05:06:51;;;;;;;;;;;17.80;99.90;;;;;;4993728;28;19917;-84
2022/06/27 05:09:19;;;;;;;;;;;17.80;99.90;;;;;;5010360;28;20399;-85
2022/06/27 05:11:50;;;;;;;;;;;17.80;99.90;;;;;;5009869;28;19925;-85
2022/06/27 05:14:19;;;;;;;;;;;17.90;99.90;;;;;;4994002;28;19917;-85
2022/06/27 05:16:50;;;;;;;;;;;18.00;99.90;;;;;;4993818;28;19964;-85
2022/06/27 05:19:18;;;;;;;;;;;17.90;99.90;;;;;;4995158;28;19964;-85
2022/06/27 05:21:47;;;;;;;;;;;17.90;99.90;;;;;;4994688;28;19921;-85
2022/06/27 05:24:18;;;;;;;;;;;18.00;99.90;;;;;;5011186;28;19968;-86
2022/06/27 05:26:53;;;;;;;;;;;18.00;99.90;;;;;;5009585;28;20376;-85
2022/06/27 05:29:19;;;;;;;;;;;18.00;99.90;;;;;;5010732;28;19921;-85
2022/06/27 05:31:47;;;;;;;;;;;18.10;99.90;;;;;;5027655;28;20291;-85
2022/06/27 05:34:18;;;;;;;;;;;18.10;99.90;;;;;;5043445;28;20384;-85
2022/06/27 05:36:52;;;;;;;;;;;18.10;99.90;;;;;;4994908;28;20314;-85
2022/06/27 05:39:18;;;;;;;;;;;18.20;99.90;;;;;;5009565;28;20392;-86
2022/06/27 05:41:50;;;;;;;;;;;18.20;99.90;;;;;;4991531;28;19965;-84
2022/06/27 05:44:19;;;;;;;;;;;18.20;99.90;;;;;;4998955;28;19967;-85
2022/06/27 05:46:50;;;;;;;;;;;18.30;99.90;;;;;;4994226;28;20008;-86
2022/06/27 05:49:19;;;;;;;;;;;18.30;99.90;;;;;;5010776;28;20015;-86
2022/06/27 05:51:51;;;;;;;;;;;18.30;99.90;;;;;;5009762;28;19975;-85
2022/06/27 05:54:21;;;;;;;;;;;18.30;99.90;;;;;;4994160;28;20287;-85
2022/06/27 05:56:50;;;;;;;;;;;18.30;99.90;;;;;;5012005;28;19931;-85
2022/06/27 05:59:18;;;;;;;;;;;18.30;99.90;;;;;;5009989;28;19960;-86
2022/06/27 06:01:51;;;;;;;;;;;18.30;99.90;;;;;;5011074;28;19960;-86
2022/06/27 06:04:20;;;;;;;;;;;18.30;99.90;;;;;;5010408;28;19971;-85
2022/06/27 06:06:51;;;;;;;;;;;18.30;99.90;;;;;;4994283;28;19918;-85
2022/06/27 06:09:22;;;;;;;;;;;18.30;99.90;;;;;;4995553;28;20016;-85
2022/06/27 06:11:51;;;;;;;;;;;18.40;99.90;;;;;;5012131;28;19925;-84
2022/06/27 06:14:21;;;;;;;;;;;18.30;99.90;;;;;;5030366;28;19917;-85
2022/06/27 06:16:50;;;;;;;;;;;18.30;99.90;;;;;;4997887;28;19917;-86
2022/06/27 06:19:19;;;;;;;;;;;18.30;99.90;;;;;;5013504;28;19964;-85
2022/06/27 06:21:50;;;;;;;;;;;18.30;99.90;;;;;;5014716;28;19918;-85
2022/06/27 06:24:19;;;;;;;;;;;18.30;99.90;;;;;;5014251;28;20291;-86
2022/06/27 06:26:55;;;;;;;;;;;18.40;99.90;;;;;;5015231;28;20417;-86
2022/06/27 06:29:24;;;;;;;;;;;18.40;99.90;;;;;;4999178;28;19964;-86
2022/06/27 06:31:50;;;;;;;;;;;18.40;99.90;;;;;;5030556;28;19964;-85
2022/06/27 06:34:18;;;;;;;;;;;18.40;99.90;;;;;;5002539;28;19924;-86
2022/06/27 06:36:50;;;;;;;;;;;18.50;99.90;;;;;;4994231;28;19917;-85
2022/06/27 06:39:23;;;;;;;;;;;18.50;99.90;;;;;;5016889;28;19917;-85
2022/06/27 06:41:51;;;;;;;;;;;18.50;99.90;;;;;;5003965;28;19940;-86
2022/06/27 06:44:19;;;;;;;;;;;18.50;99.90;;;;;;5000902;28;19963;-84
2022/06/27 06:46:51;;;;;;;;;;;18.50;99.90;;;;;;5013524;28;19933;-85
2022/06/27 06:49:23;;;;;;;;;;;18.50;99.90;;;;;;5010303;28;19922;-86
2022/06/27 06:51:55;;;;;;;;;;;18.50;99.90;;;;;;4988761;28;19917;-84
2022/06/27 06:54:20;;;;;;;;;;;18.50;99.90;;;;;;5022484;23;20156;-72
2022/06/27 06:56:49;;;;;;;;;;;18.50;99.90;;;;;;5031371;28;19924;-72
2022/06/27 06:59:15;;;;;;;;;;;18.50;99.90;;;;;;5010796;28;19917;-72
2022/06/27 07:01:41;;;;;;;;;;;18.50;99.90;;;;;;5011069;28;20048;-72
2022/06/27 07:04:08;;;;;;;;;;;18.50;99.90;;;;;;5009877;28;20327;-72
2022/06/27 07:06:33;;;;;;;;;;;18.50;99.90;;;;;;5004810;28;19924;-72
2022/06/27 07:08:59;;;;;;;;;;;18.50;99.90;;;;;;5008078;28;20281;-72
2022/06/27 07:11:25;;;;;;;;;;;18.50;99.90;;;;;;5009008;28;19924;-72
2022/06/27 07:13:52;;;;;;;;;;;18.50;99.90;;;;;;5008617;28;20373;-72
2022/06/27 07:16:18;;;;;;;;;;;18.50;99.90;;;;;;5022291;28;20370;-72
2022/06/27 07:18:46;;;;;;;;;;;18.40;99.90;;;;;;5008056;28;19917;-72
2022/06/27 07:21:16;;;;;;;;;;;18.50;99.90;;;;;;5008273;28;19957;-72
2022/06/27 07:23:42;;;;;;;;;;;18.40;99.90;;;;;;5007147;28;19917;-72
2022/06/27 07:26:09;;;;;;;;;;;18.40;99.90;;;;;;5009823;28;19917;-72
2022/06/27 07:28:35;;;;;;;;;;;18.40;99.90;;;;;;5008368;28;19921;-72
2022/06/27 07:31:01;;;;;;;;;;;18.40;99.90;;;;;;5005517;28;19929;-72
2022/06/27 07:33:27;;;;;;;;;;;18.40;99.90;;;;;;5006334;28;19921;-72
2022/06/27 07:35:53;;;;;;;;;;;18.50;99.90;;;;;;4992891;28;20290;-72
2022/06/27 07:38:18;;;;;;;;;;;18.30;99.90;;;;;;5007096;28;20375;-71
2022/06/27 07:40:44;;;;;;;;;;;18.40;99.90;;;;;;4992209;28;20054;-71
2022/06/27 07:43:13;;;;;;;;;;;18.40;99.90;;;;;;5008270;28;19999;-72
2022/06/27 07:45:40;;;;;;;;;;;18.40;99.90;;;;;;5010281;28;20348;-72
2022/06/27 07:48:06;;;;;;;;;;;18.40;99.90;;;;;;5010973;28;20420;-72
2022/06/27 07:50:42;;;;;;;;;;;18.40;99.90;;;;;;5000848;28;19957;-72
2022/06/27 07:53:12;;;;;;;;;;;18.40;99.90;;;;;;5008437;28;20048;-72
2022/06/27 07:55:42;;;;;;;;;;;18.40;99.90;;;;;;5009356;28;19971;-72
2022/06/27 07:58:14;;;;;;;;;;;18.50;99.90;;;;;;5034250;28;20364;-72
2022/06/27 08:00:39;;;;;;;;;;;18.50;99.90;;;;;;5007313;28;20397;-72
2022/06/27 08:03:36;;;;;;;;;;;18.40;99.90;;;;;;5010516;28;19918;-72
2022/06/27 08:05:51;;;;;;;;;;;18.50;99.90;;;;;;4990301;28;19925;-72
2022/06/27 08:08:17;;;;;;;;;;;18.50;99.90;;;;;;4996429;28;19925;-72
2022/06/27 08:10:43;;;;;;;;;;;18.50;99.90;;;;;;5041141;28;20250;-72
2022/06/27 08:13:08;;;;;;;;;;;18.60;99.90;;;;;;5009241;28;20325;-72
2022/06/27 08:15:34;;;;;;;;;;;18.60;99.90;;;;;;5007166;28;19943;-72
2022/06/27 08:18:00;;;;;;;;;;;18.70;99.90;;;;;;5009307;28;19917;-72
2022/06/27 08:20:26;;;;;;;;;;;18.70;99.90;;;;;;5009619;28;19924;-71
2022/06/27 08:22:52;;;;;;;;;;;18.80;99.90;;;;;;5009151;28;19917;-71
2022/06/27 08:25:17;;;;;;;;;;;18.80;99.90;;;;;;5006152;28;19917;-72
2022/06/27 08:27:43;;;;;;;;;;;18.90;99.90;;;;;;4991408;28;20369;-72
2022/06/27 08:30:10;;;;;;;;;;;18.90;99.90;;;;;;5006899;28;19917;-72
2022/06/27 08:32:35;;;;;;;;;;;18.90;99.90;;;;;;5008517;28;19960;-72
2022/06/27 08:35:01;;;;;;;;;;;18.90;99.90;;;;;;5008805;28;19979;-71
2022/06/27 08:37:27;;;;;;;;;;;18.90;99.90;;;;;;5009792;28;19921;-72
2022/06/27 08:39:53;;;;;;;;;;;18.90;99.90;;;;;;5007104;28;20105;-72
2022/06/27 08:42:19;;;;;;;;;;;18.90;99.90;;;;;;5002495;28;19923;-72
2022/06/27 08:44:45;;;;;;;;;;;19.00;99.90;;;;;;5009411;28;19964;-72
2022/06/27 08:47:11;;;;;;;;;;;19.00;99.90;;;;;;5008008;28;19921;-72
2022/06/27 08:49:39;;;;;;;;;;;19.00;99.90;;;;;;4987515;28;19921;-72
2022/06/27 08:52:05;;;;;;;;;;;19.00;99.90;;;;;;5008139;28;19924;-72
2022/06/27 08:54:30;;;;;;;;;;;19.00;99.90;;;;;;5008779;28;19917;-72
2022/06/27 08:56:56;;;;;;;;;;;19.10;99.90;;;;;;5009720;28;19921;-72
2022/06/27 08:59:21;;;;;;;;;;;19.00;99.90;;;;;;5003944;28;20479;-71
2022/06/27 09:01:48;;;;;;;;;;;19.10;99.90;;;;;;5009527;28;19974;-72
2022/06/27 09:04:13;;;;;;;;;;;19.10;99.90;;;;;;4990525;28;19918;-71
2022/06/27 09:06:43;;;;;;;;;;;19.20;99.90;;;;;;4989955;28;19924;-71
2022/06/27 09:09:08;;;;;;;;;;;19.20;99.90;;;;;;4997819;28;19917;-72
2022/06/27 09:11:35;;;;;;;;;;;19.20;99.90;;;;;;4989744;28;19972;-72
2022/06/27 09:14:02;;;;;;;;;;;19.30;99.90;;;;;;5007920;28;19925;-71
2022/06/27 09:16:27;;;;;;;;;;;19.30;99.90;;;;;;5000550;28;19924;-72
2022/06/27 09:18:55;;;;;;;;;;;19.30;99.90;;;;;;5000553;28;19917;-71
2022/06/27 09:21:21;;;;;;;;;;;19.50;99.90;;;;;;5008207;28;20012;-72
2022/06/27 09:23:47;;;;;;;;;;;19.60;99.90;;;;;;5008262;28;20427;-72
2022/06/27 09:26:22;;;;;;;;;;;19.60;99.90;;;;;;5007170;28;19918;-72
2022/06/27 09:28:50;;;;;;;;;;;19.60;99.90;;;;;;4990918;28;20378;-71
2022/06/27 09:31:28;;;;;;;;;;;19.70;99.90;;;;;;5006722;28;20301;-72
2022/06/27 09:34:09;;;;;;;;;;;19.70;99.90;;;;;;5006208;28;19917;-72
2022/06/27 09:36:42;;;;;;;;;;;19.80;99.90;;;;;;5006909;28;19917;-72
2022/06/27 09:39:16;;;;;;;;;;;19.90;99.90;;;;;;5004535;28;20000;-72
2022/06/27 09:41:45;;;;;;;;;;;19.90;99.90;;;;;;5005314;28;20384;-72
2022/06/27 09:44:11;;;;;;;;;;;20.00;99.90;;;;;;5008108;28;19987;-72
2022/06/27 09:46:43;;;;;;;;;;;20.00;99.90;;;;;;5008742;28;19925;-72
2022/06/27 09:49:13;;;;;;;;;;;20.10;99.90;;;;;;5011441;28;19960;-72
2022/06/27 09:51:39;;;;;;;;;;;20.10;99.90;;;;;;5004091;28;19973;-71
2022/06/27 09:56:48;;;;;;;;;;;20.10;99.90;;;;;;5001573;28;19926;-71
2022/06/27 09:59:14;;;;;;;;;;;20.10;99.90;;;;;;4988052;28;20324;-71
2022/06/27 10:01:44;;;;;;;;;;;20.20;99.90;;;;;;4973403;28;19940;-71
2022/06/27 10:04:10;;;;;;;;;;;20.10;99.90;;;;;;4974597;28;20413;-71
2022/06/27 10:06:41;;;;;;;;;;;20.20;99.90;;;;;;4974611;28;20350;-71
2022/06/27 10:09:08;;;;;;;;;;;20.20;99.90;;;;;;4981021;28;19946;-71
2022/06/27 10:11:36;;;;;;;;;;;20.20;99.90;;;;;;4987146;28;19924;-71
2022/06/27 10:14:18;;;;;;;;;;;20.20;99.90;;;;;;4991283;28;20398;-71
2022/06/27 10:16:57;;;;;;;;;;;20.10;99.90;;;;;;4988312;28;19918;-71
2022/06/27 10:19:27;;;;;;;;;;;20.10;99.90;;;;;;4989615;28;19941;-71
2022/06/27 10:21:53;;;;;;;;;;;20.10;99.90;;;;;;4990344;28;19991;-71
2022/06/27 10:24:18;;;;;;;;;;;20.10;99.90;;;;;;4991955;28;19971;-71
2022/06/27 10:26:44;;;;;;;;;;;20.10;99.90;;;;;;4986835;28;20406;-71
2022/06/27 10:29:29;;;;;;;;;;;20.10;99.90;;;;;;4971682;28;19921;-72
2022/06/27 10:31:54;;;;;;;;;;;20.10;99.90;;;;;;4992414;28;20403;-72
2022/06/27 10:34:38;;;;;;;;;;;20.00;99.90;;;;;;5022710;28;19917;-72
2022/06/27 10:37:27;;;;;;;;;;;20.00;99.90;;;;;;4985614;28;19972;-71
2022/06/27 10:40:11;;;;;;;;;;;20.10;99.90;;;;;;4984218;28;20342;-72
2022/06/27 10:42:43;;;;;;;;;;;20.10;99.90;;;;;;4990313;28;19922;-72
2022/06/27 10:45:40;;;;;;;;;;;20.00;99.90;;;;;;4985987;28;19924;-72
2022/06/27 10:48:25;;;;;;;;;;;20.00;99.90;;;;;;4978776;28;20004;-72
2022/06/27 10:50:51;;;;;;;;;;;20.00;99.90;;;;;;4990713;28;19973;-71
2022/06/27 10:53:16;;;;;;;;;;;20.00;99.90;;;;;;4989246;28;19921;-72
2022/06/27 10:55:42;;;;;;;;;;;20.00;99.90;;;;;;4989126;28;19918;-71
2022/06/27 10:58:21;;;;;;;;;;;20.00;99.90;;;;;;4991411;28;19918;-71
2022/06/27 11:00:47;;;;;;;;;;;19.90;99.90;;;;;;4977861;28;19918;-74
2022/06/27 11:03:23;;;;;;;;;;;19.90;99.90;;;;;;4990083;28;19921;-71
2022/06/27 11:05:53;;;;;;;;;;;20.00;99.90;;;;;;4974509;28;20409;-71
2022/06/27 11:08:20;;;;;;;;;;;20.00;99.90;;;;;;4984890;28;19964;-71
2022/06/27 11:10:45;;;;;;;;;;;20.00;99.90;;;;;;4989474;28;19918;-71
2022/06/27 11:13:11;;;;;;;;;;;20.10;99.90;;;;;;4974962;28;20057;-71
2022/06/27 11:15:36;;;;;;;;;;;20.00;99.90;;;;;;5019940;28;19997;-72
2022/06/27 11:18:06;;;;;;;;;;;20.10;99.90;;;;;;4988921;28;19917;-71
2022/06/27 11:20:32;;;;;;;;;;;20.10;99.90;;;;;;4989206;28;20302;-71
2022/06/27 11:22:59;;;;;;;;;;;20.20;99.90;;;;;;4991407;28;19921;-71
2022/06/27 11:25:27;;;;;;;;;;;20.20;99.90;;;;;;4989241;28;19924;-71
2022/06/27 11:27:54;;;;;;;;;;;20.10;99.90;;;;;;4985024;28;19951;-71
2022/06/27 11:33:11;;;;;;;;;;;20.10;99.90;;;;;;4989934;28;19924;-72
2022/06/27 11:35:37;;;;;;;;;;;20.10;99.90;;;;;;4986698;28;20398;-71
2022/06/27 11:38:05;;;;;;;;;;;20.10;99.90;;;;;;4987405;28;19941;-71
2022/06/27 11:40:30;;;;;;;;;;;20.10;99.90;;;;;;4990533;28;20207;-71
2022/06/27 11:42:56;;;;;;;;;;;20.10;99.90;;;;;;4985450;28;19917;-71
2022/06/27 11:45:21;;;;;;;;;;;20.20;99.90;;;;;;4988564;28;20294;-71
2022/06/27 11:47:47;;;;;;;;;;;20.20;99.90;;;;;;4989774;28;20085;-71
2022/06/27 11:50:14;;;;;;;;;;;20.30;99.90;;;;;;4988156;28;19918;-71
2022/06/27 11:52:41;;;;;;;;;;;20.40;99.90;;;;;;4980715;28;19922;-71
2022/06/27 11:55:07;;;;;;;;;;;20.50;99.90;;;;;;4969591;28;19918;-71
2022/06/27 11:57:33;;;;;;;;;;;20.60;99.90;;;;;;4971819;28;19922;-71
2022/06/27 12:00:00;;;;;;;;;;;20.70;99.90;;;;;;5000223;28;19918;-71
2022/06/27 12:02:27;;;;;;;;;;;20.70;99.90;;;;;;4986778;28;19919;-71
2022/06/27 12:05:03;;;;;;;;;;;20.70;99.90;;;;;;4971775;28;20350;-71
2022/06/27 12:07:29;;;;;;;;;;;20.70;99.90;;;;;;4988376;28;19968;-71
2022/06/27 12:09:55;;;;;;;;;;;20.70;99.90;;;;;;4965828;28;20021;-71
2022/06/27 12:12:23;;;;;;;;;;;20.70;99.90;;;;;;4989808;28;19963;-71
2022/06/27 12:14:49;;;;;;;;;;;20.70;99.90;;;;;;4989820;28;19924;-71
2022/06/27 12:17:15;;;;;;;;;;;20.70;99.90;;;;;;4990343;28;20266;-71
2022/06/27 12:19:41;;;;;;;;;;;20.70;99.90;;;;;;4983712;28;20036;-71
2022/06/27 12:22:18;;;;;;;;;;;20.80;99.90;;;;;;4989094;28;19924;-71
2022/06/27 12:24:45;;;;;;;;;;;20.80;99.90;;;;;;4987787;28;19917;-71
2022/06/27 12:27:10;;;;;;;;;;;20.80;99.90;;;;;;4977306;28;19926;-71
2022/06/27 12:29:36;;;;;;;;;;;20.80;99.90;;;;;;4976165;28;19918;-71
2022/06/27 12:32:01;;;;;;;;;;;20.90;99.90;;;;;;5004853;28;19928;-71
2022/06/27 12:34:28;;;;;;;;;;;20.90;99.90;;;;;;4988980;28;20144;-71
2022/06/27 12:36:54;;;;;;;;;;;21.00;99.90;;;;;;4988284;28;20274;-71
2022/06/27 12:39:19;;;;;;;;;;;21.00;99.90;;;;;;4977738;28;19928;-71
2022/06/27 12:41:45;;;;;;;;;;;21.00;99.90;;;;;;5001016;28;19922;-71
2022/06/27 12:44:11;;;;;;;;;;;21.00;99.90;;;;;;4967611;28;20307;-71
2022/06/27 12:46:36;;;;;;;;;;;21.00;99.90;;;;;;4978378;28;19961;-71
2022/06/27 12:49:02;;;;;;;;;;;21.00;99.90;;;;;;4988715;28;19922;-71
2022/06/27 12:51:29;;;;;;;;;;;21.00;99.90;;;;;;4988719;28;19918;-71
2022/06/27 12:53:55;;;;;;;;;;;21.10;99.90;;;;;;4972271;28;19918;-71
2022/06/27 12:56:22;;;;;;;;;;;21.20;99.90;;;;;;4980657;28;19917;-72
2022/06/27 12:58:47;;;;;;;;;;;21.20;99.90;;;;;;4988048;28;19924;-71
2022/06/27 13:01:13;;;;;;;;;;;21.10;99.90;;;;;;4988788;28;20374;-71
2022/06/27 13:03:38;;;;;;;;;;;21.10;99.90;;;;;;4984624;28;19918;-71
2022/06/27 13:06:05;;;;;;;;;;;21.00;99.90;;;;;;4988775;28;19917;-71
2022/06/27 13:08:31;;;;;;;;;;;21.00;99.90;;;;;;4984196;28;19925;-71
2022/06/27 13:10:56;;;;;;;;;;;21.00;99.90;;;;;;4985287;28;19917;-71
2022/06/27 13:13:22;;;;;;;;;;;21.00;99.90;;;;;;4968601;28;19957;-71
2022/06/27 13:15:47;;;;;;;;;;;20.90;99.90;;;;;;4951917;28;19964;-71
2022/06/27 13:18:13;;;;;;;;;;;20.80;99.90;;;;;;4969425;28;20089;-71
2022/06/27 13:20:38;;;;;;;;;;;20.80;99.90;;;;;;5000309;28;19925;-71
2022/06/27 13:23:04;;;;;;;;;;;20.90;99.90;;;;;;4988083;28;20482;-71
2022/06/27 13:25:29;;;;;;;;;;;20.80;99.90;;;;;;4987889;28;20255;-71
2022/06/27 13:27:55;;;;;;;;;;;20.80;99.90;;;;;;4987434;28;19979;-71
2022/06/27 13:30:20;;;;;;;;;;;20.80;99.90;;;;;;4983435;28;19929;-71
2022/06/27 13:32:46;;;;;;;;;;;20.80;99.90;;;;;;4987671;28;19963;-71
2022/06/27 13:35:12;;;;;;;;;;;20.70;99.90;;;;;;4984501;28;19928;-71
2022/06/27 13:37:38;;;;;;;;;;;20.80;99.90;;;;;;4988094;28;19968;-71
2022/06/27 13:40:05;;;;;;;;;;;20.70;99.90;;;;;;4981684;28;19968;-71
2022/06/27 13:42:32;;;;;;;;;;;20.70;99.90;;;;;;4988318;28;19922;-71
2022/06/27 13:44:57;;;;;;;;;;;20.70;99.90;;;;;;4970677;28;20344;-71
2022/06/27 13:47:23;;;;;;;;;;;20.70;99.90;;;;;;4988952;28;20009;-71
2022/06/27 13:49:50;;;;;;;;;;;20.70;99.90;;;;;;4980427;28;19932;-71
2022/06/27 13:52:18;;;;;;;;;;;20.70;99.90;;;;;;4975189;28;20466;-71
2022/06/27 13:54:44;;;;;;;;;;;20.70;99.90;;;;;;5002287;28;19918;-71
2022/06/27 13:57:10;;;;;;;;;;;20.70;99.90;;;;;;4969696;28;19922;-71
2022/06/27 13:59:36;;;;;;;;;;;20.70;99.90;;;;;;4973374;28;20000;-71
2022/06/27 14:02:02;;;;;;;;;;;20.70;99.90;;;;;;4973789;28;20024;-71
2022/06/27 14:04:27;;;;;;;;;;;20.70;99.90;;;;;;4967380;28;19956;-71
2022/06/27 14:09:37;;;;;;;;;;;20.70;99.90;;;;;;5000625;28;19925;-71
2022/06/27 14:12:03;;;;;;;;;;;20.70;99.90;;;;;;4987756;28;20016;-71
2022/06/27 14:14:28;;;;;;;;;;;20.60;99.90;;;;;;4987822;28;19944;-71
2022/06/27 14:16:54;;;;;;;;;;;20.60;99.90;;;;;;4984901;28;20386;-71
2022/06/27 14:19:22;;;;;;;;;;;20.60;99.90;;;;;;4987595;28;19933;-71
2022/06/27 14:21:48;;;;;;;;;;;20.50;99.90;;;;;;4988393;28;19921;-71
2022/06/27 14:24:14;;;;;;;;;;;20.40;99.90;;;;;;4981953;28;19972;-71
2022/06/27 14:26:40;;;;;;;;;;;20.40;99.90;;;;;;4997347;28;20314;-71
2022/06/27 14:29:06;;;;;;;;;;;20.40;99.90;;;;;;4973488;28;20342;-71
2022/06/27 14:31:31;;;;;;;;;;;20.30;99.90;;;;;;4984175;28;19918;-71
2022/06/27 14:33:58;;;;;;;;;;;20.30;99.90;;;;;;4979643;28;19921;-71